createdAt,value
2022-08-09T00:00:28.046Z,57.97
2022-08-09T00:02:54.383Z,57.96
2022-08-09T00:06:17.977Z,57.74
2022-08-09T00:08:11.471Z,57.95
2022-08-09T00:10:55.040Z,57.87
2022-08-09T00:13:24.386Z,58.05
2022-08-09T00:15:59.092Z,57.70
2022-08-09T00:18:28.906Z,58.22
2022-08-09T00:20:55.139Z,58.50
2022-08-09T00:23:55.355Z,57.94
2022-08-09T00:26:08.833Z,57.96
2022-08-09T00:28:38.025Z,58.04
2022-08-09T00:31:30.369Z,58.41
2022-08-09T00:33:52.462Z,58.41
2022-08-09T00:36:19.555Z,58.43
2022-08-09T00:38:45.764Z,58.34
2022-08-09T00:44:13.033Z,58.56
2022-08-09T00:44:19.479Z,58.34
2022-08-09T00:46:56.942Z,58.45
2022-08-09T00:49:28.208Z,58.33
2022-08-09T00:51:57.187Z,58.60
2022-08-09T00:54:31.524Z,58.27
2022-08-09T00:57:02.055Z,58.08
2022-08-09T00:59:41.471Z,58.56
2022-08-09T01:02:24.424Z,58.70
2022-08-09T01:05:13.750Z,58.20
2022-08-09T01:08:00.690Z,58.36
2022-08-09T01:10:51.153Z,58.58
2022-08-09T01:13:41.912Z,58.28
2022-08-09T01:16:26.942Z,58.45
2022-08-09T01:19:04.889Z,58.41
2022-08-09T01:21:51.249Z,58.25
2022-08-09T01:24:40.157Z,58.43
2022-08-09T01:27:12.702Z,58.46
2022-08-09T01:29:56.741Z,58.33
2022-08-09T01:32:38.649Z,58.76
2022-08-09T01:35:38.274Z,58.16
2022-08-09T01:38:15.438Z,58.52
2022-08-09T01:40:52.918Z,58.81
2022-08-09T01:43:47.943Z,58.51
2022-08-09T01:46:24.811Z,58.94
2022-08-09T01:48:54.364Z,58.83
2022-08-09T01:51:22.579Z,58.57
2022-08-09T01:53:50.128Z,58.74
2022-08-09T01:56:21.333Z,58.49
2022-08-09T01:58:50.494Z,58.21
2022-08-09T02:01:19.007Z,58.55
2022-08-09T02:03:49.407Z,58.27
2022-08-09T02:06:39.383Z,58.27
2022-08-09T02:09:14.255Z,58.33
2022-08-09T02:11:43.850Z,58.79
2022-08-09T02:14:15.034Z,59.12
2022-08-09T02:17:15.006Z,58.55
2022-08-09T02:19:43.428Z,58.71
2022-08-09T02:22:16.512Z,59.26
2022-08-09T02:24:51.800Z,59.15
2022-08-09T02:27:20.230Z,59.50
2022-08-09T02:30:08.680Z,59.39
2022-08-09T02:32:39.304Z,59.72
2022-08-09T02:35:17.197Z,58.91
2022-08-09T02:37:46.792Z,59.54
2022-08-09T02:40:18.557Z,59.56
2022-08-09T02:42:55.078Z,59.73
2022-08-09T02:45:35.559Z,59.55
2022-08-09T02:48:19.400Z,59.12
2022-08-09T02:50:58.948Z,59.66
2022-08-09T02:53:39.711Z,59.30
2022-08-09T02:56:11.206Z,59.67
2022-08-09T02:58:39.257Z,59.72
2022-08-09T03:01:10.649Z,60.18
2022-08-09T03:04:17.940Z,59.87
2022-08-09T03:06:27.493Z,60.15
2022-08-09T03:08:54.669Z,60.44
2022-08-09T03:12:06.362Z,60.56
2022-08-09T03:14:10.062Z,60.84
2022-08-09T03:16:41.679Z,60.56
2022-08-09T03:19:14.322Z,60.60
2022-08-09T03:21:58.085Z,60.72
2022-08-09T03:24:42.136Z,60.89
2022-08-09T03:27:10.860Z,61.31
2022-08-09T03:29:57.238Z,61.36
2022-08-09T03:32:26.125Z,61.17
2022-08-09T03:34:54.123Z,61.06
2022-08-09T03:37:54.745Z,60.87
2022-08-09T03:40:09.152Z,60.74
2022-08-09T03:42:39.774Z,60.73
2022-08-09T03:45:09.894Z,61.22
2022-08-09T03:47:36.730Z,61.23
2022-08-09T03:50:09.243Z,60.83
2022-08-09T03:52:40.580Z,60.99
2022-08-09T03:55:09.904Z,61.11
2022-08-09T03:57:44.737Z,61.02
2022-08-09T04:00:25.916Z,61.39
2022-08-09T04:02:54.052Z,61.22
2022-08-09T04:05:27.945Z,60.93
2022-08-09T04:07:57.256Z,60.63
2022-08-09T04:10:29.027Z,60.88
2022-08-09T04:12:56.155Z,60.75
2022-08-09T04:15:42.562Z,60.76
2022-08-09T04:18:17.962Z,60.78
2022-08-09T04:20:44.564Z,60.50
2022-08-09T04:23:16.702Z,61.11
2022-08-09T04:25:43.140Z,61.04
2022-08-09T04:28:09.267Z,60.99
2022-08-09T04:30:38.567Z,60.43
2022-08-09T04:33:10.981Z,60.61
2022-08-09T04:35:40.080Z,60.36
2022-08-09T04:38:09.563Z,60.72
2022-08-09T04:40:56.335Z,60.43
2022-08-09T04:43:23.339Z,59.97
2022-08-09T04:45:53.592Z,60.49
2022-08-09T04:48:20.239Z,60.63
2022-08-09T04:50:46.549Z,59.79
2022-08-09T04:53:16.214Z,59.72
2022-08-09T04:55:59.069Z,59.75
2022-08-09T04:58:31.563Z,60.30
2022-08-09T05:00:58.255Z,59.51
2022-08-09T05:03:40.525Z,59.55
2022-08-09T05:06:11.507Z,59.55
2022-08-09T05:08:37.633Z,59.38
2022-08-09T05:11:07.627Z,59.05
2022-08-09T11:19:11.872Z,31.74
2022-08-09T11:22:05.069Z,32.23
2022-08-09T11:24:57.690Z,32.83
2022-08-09T11:28:03.890Z,32.56
2022-08-09T11:30:32.818Z,32.54
2022-08-09T11:33:18.472Z,32.13
2022-08-09T11:35:58.659Z,32.23
2022-08-09T11:38:34.788Z,31.43
2022-08-09T11:41:10.278Z,31.55
2022-08-09T11:43:47.259Z,31.25
2022-08-09T11:46:26.692Z,30.80
2022-08-09T11:48:59.650Z,30.66
2022-08-09T11:52:54.089Z,30.49
2022-08-09T11:54:28.152Z,30.03
2022-08-09T11:58:00.061Z,30.52
2022-08-09T12:00:27.234Z,30.47
2022-08-09T12:02:54.463Z,31.15
2022-08-09T12:05:23.108Z,31.02
2022-08-09T12:07:49.785Z,30.72
2022-08-09T12:10:38.486Z,30.21
2022-08-09T12:14:06.952Z,30.36
2022-08-09T12:15:52.298Z,30.48
2022-08-09T12:18:30.258Z,30.56
2022-08-09T12:21:03.215Z,30.67
2022-08-09T12:23:56.618Z,31.20
2022-08-09T12:26:19.648Z,30.91
2022-08-09T12:29:15.498Z,30.23
2022-08-09T12:31:59.013Z,29.44
2022-08-09T12:34:36.708Z,29.54
2022-08-09T12:37:21.670Z,29.82
2022-08-09T12:40:26.879Z,28.89
2022-08-09T12:42:54.181Z,29.53
2022-08-09T12:45:32.344Z,29.01
2022-08-09T12:48:01.292Z,28.70
2022-08-09T12:50:28.614Z,28.31
2022-08-09T12:53:07.959Z,27.72
2022-08-09T12:56:16.450Z,28.38
2022-08-09T12:58:24.132Z,28.12
2022-08-09T13:00:53.349Z,27.98
2022-08-09T13:03:53.489Z,27.66
2022-08-09T13:06:38.834Z,27.47
2022-08-09T13:09:26.249Z,27.86
2022-08-09T13:12:03.174Z,28.17
2022-08-09T13:14:40.893Z,29.17
2022-08-09T13:17:16.575Z,29.54
2022-08-09T13:20:16.047Z,29.02
2022-08-09T13:23:05.780Z,29.90
2022-08-09T13:25:53.022Z,30.02
2022-08-09T13:28:24.501Z,30.74
2022-08-09T13:32:20.266Z,29.98
2022-08-09T13:33:56.862Z,30.14
2022-08-09T13:36:38.129Z,30.38
2022-08-09T13:41:50.735Z,29.04
2022-08-09T13:42:01.910Z,29.16
2022-08-09T13:44:29.334Z,28.63
2022-08-09T13:47:27.371Z,29.57
2022-08-09T13:49:56.255Z,29.60
2022-08-09T13:52:24.672Z,29.46
2022-08-09T13:54:59.750Z,28.68
2022-08-09T13:57:35.622Z,28.52
2022-08-09T14:00:02.689Z,28.53
2022-08-09T14:02:42.480Z,28.46
2022-08-09T14:05:57.411Z,28.57
2022-08-09T14:08:10.251Z,28.57
2022-08-09T14:10:46.335Z,28.30
2022-08-09T14:13:28.094Z,28.38
2022-08-09T14:16:10.067Z,28.34
2022-08-09T14:18:36.919Z,27.99
2022-08-09T14:21:03.037Z,27.46
2022-08-09T14:23:40.165Z,27.05
2022-08-09T14:26:12.976Z,25.96
2022-08-09T14:28:39.778Z,26.35
2022-08-09T14:31:07.007Z,28.56
2022-08-09T14:33:38.289Z,29.39
2022-08-09T14:36:12.134Z,30.02
2022-08-09T14:38:46.307Z,29.29
2022-08-09T14:41:26.752Z,29.12
2022-08-09T14:44:01.395Z,29.18
2022-08-09T14:46:57.104Z,28.41
2022-08-09T14:49:16.264Z,28.08
2022-08-09T14:51:42.804Z,27.41
2022-08-09T14:54:09.549Z,26.83
2022-08-09T14:56:36.248Z,26.54
2022-08-09T14:59:22.315Z,26.18
2022-08-09T15:01:49.870Z,25.90
2022-08-09T15:04:16.001Z,25.30
2022-08-09T15:06:42.121Z,25.57
2022-08-09T15:09:15.888Z,25.42
2022-08-09T15:12:02.000Z,24.24
2022-08-09T15:14:33.722Z,23.22
2022-08-09T15:17:00.302Z,22.91
2022-08-09T15:19:30.858Z,23.01
2022-08-09T15:22:02.858Z,24.17
2022-08-09T15:24:29.210Z,24.28
2022-08-09T15:26:55.351Z,24.80
2022-08-09T15:30:56.677Z,25.04
2022-08-09T15:32:28.971Z,26.49
2022-08-09T15:34:54.314Z,26.93
2022-08-09T15:37:37.058Z,27.78
2022-08-09T15:40:06.878Z,28.06
2022-08-09T15:42:38.939Z,27.78
2022-08-09T15:45:07.239Z,27.24
2022-08-09T15:47:51.828Z,27.20
2022-08-09T15:50:23.435Z,27.00
2022-08-09T15:53:06.362Z,26.74
2022-08-09T15:56:04.209Z,26.34
2022-08-09T15:58:26.430Z,26.71
2022-08-09T16:00:53.461Z,26.57
2022-08-09T16:03:29.735Z,26.16
2022-08-09T16:06:06.407Z,26.97
2022-08-09T16:08:32.724Z,27.19
2022-08-09T16:11:01.727Z,27.58
2022-08-09T16:14:02.714Z,28.38
2022-08-09T16:16:18.388Z,28.45
2022-08-09T16:18:48.022Z,28.21
2022-08-09T16:21:17.477Z,28.26
2022-08-09T16:23:55.974Z,28.08
2022-08-09T16:26:35.101Z,27.98
2022-08-09T16:29:10.662Z,27.96
2022-08-09T16:32:19.085Z,27.25
2022-08-09T16:34:24.937Z,27.12
2022-08-09T16:36:51.086Z,27.30
2022-08-09T16:39:17.225Z,26.70
2022-08-09T16:42:03.473Z,26.96
2022-08-09T16:44:31.684Z,27.46
2022-08-09T16:47:03.875Z,27.53
2022-08-09T16:50:31.064Z,27.65
2022-08-09T16:52:30.398Z,28.45
2022-08-09T16:54:56.531Z,28.56
2022-08-09T16:57:23.100Z,30.95
2022-08-09T16:59:50.240Z,31.46
2022-08-09T17:02:23.851Z,32.30
2022-08-09T17:04:51.733Z,32.89
2022-08-09T17:08:44.322Z,32.90
2022-08-09T17:10:13.558Z,33.30
2022-08-09T17:12:42.285Z,33.46
2022-08-09T17:15:30.526Z,33.34
2022-08-09T17:18:00.677Z,33.18
2022-08-09T17:20:29.706Z,33.44
2022-08-09T17:23:03.483Z,33.42
2022-08-09T17:25:31.217Z,33.07
2022-08-09T17:28:05.629Z,33.35
2022-08-09T17:30:32.496Z,34.80
2022-08-09T17:33:05.710Z,35.06
2022-08-09T17:35:48.329Z,35.54
2022-08-09T17:38:32.293Z,36.13
2022-08-09T17:41:02.140Z,36.97
2022-08-09T17:43:33.954Z,37.66
2022-08-09T17:46:06.246Z,37.94
2022-08-09T17:48:39.743Z,38.80
2022-08-09T17:51:17.153Z,39.06
2022-08-09T17:53:51.546Z,39.16
2022-08-09T17:56:18.891Z,39.80
2022-08-09T17:58:46.448Z,39.89
2022-08-09T18:01:15.419Z,40.47
2022-08-09T18:03:49.341Z,40.34
2022-08-09T18:06:28.801Z,40.72
2022-08-09T18:08:59.675Z,40.64
2022-08-09T18:11:26.332Z,40.75
2022-08-09T18:13:58.199Z,40.82
2022-08-09T18:16:30.532Z,41.44
2022-08-09T18:19:04.197Z,41.64
2022-08-09T18:21:50.343Z,42.49
2022-08-09T18:24:18.882Z,42.35
2022-08-09T18:26:46.609Z,42.60
2022-08-09T18:30:42.912Z,42.59
2022-08-09T18:31:59.552Z,43.68
2022-08-09T18:34:29.006Z,43.40
2022-08-09T18:36:55.528Z,44.19
2022-08-09T18:39:25.762Z,43.96
2022-08-09T18:41:59.155Z,44.46
2022-08-09T18:44:25.758Z,44.74
2022-08-09T18:47:07.839Z,45.45
2022-08-09T18:49:41.538Z,44.79
2022-08-09T18:52:10.056Z,45.83
2022-08-09T18:54:37.755Z,46.04
2022-08-09T18:57:05.984Z,45.92
2022-08-09T18:59:48.426Z,45.83
2022-08-09T19:02:15.385Z,46.31
2022-08-09T19:04:41.565Z,47.19
2022-08-09T19:07:16.458Z,47.58
2022-08-09T19:10:15.599Z,48.07
2022-08-09T19:12:30.394Z,47.54
2022-08-09T19:14:57.344Z,47.99
2022-08-09T19:17:23.465Z,48.22
2022-08-09T19:19:58.621Z,48.36
2022-08-09T19:22:27.166Z,49.18
2022-08-09T19:25:09.211Z,49.23
2022-08-09T19:27:39.936Z,49.79
2022-08-09T19:30:22.514Z,49.99
2022-08-09T19:32:53.667Z,50.78
2022-08-09T19:35:26.220Z,50.94
2022-08-09T19:37:56.218Z,51.06
2022-08-09T19:40:24.431Z,51.98
2022-08-09T19:43:00.258Z,52.14
2022-08-09T19:45:27.305Z,52.92
2022-08-09T19:48:05.707Z,53.22
2022-08-09T19:50:50.227Z,53.28
2022-08-09T19:53:20.700Z,53.90
2022-08-09T19:56:02.367Z,54.67
2022-08-09T19:58:32.096Z,54.53
2022-08-09T20:00:58.804Z,54.66
2022-08-09T20:04:11.625Z,55.22
2022-08-09T20:06:23.559Z,55.49
2022-08-09T20:08:57.246Z,56.03
2022-08-09T20:11:25.906Z,56.45
2022-08-09T20:13:54.338Z,56.48
2022-08-09T20:16:33.584Z,56.88
2022-08-09T20:19:48.704Z,56.87
2022-08-09T20:21:56.277Z,57.41
2022-08-09T20:24:29.528Z,57.51
2022-08-09T20:26:59.856Z,57.89
2022-08-09T20:29:31.092Z,58.54
2022-08-09T20:32:31.341Z,58.29
2022-08-09T20:34:50.732Z,58.64
2022-08-09T20:37:17.598Z,59.23
2022-08-09T20:40:16.161Z,59.20
2022-08-09T20:42:35.279Z,59.64
2022-08-09T20:45:57.082Z,59.71
2022-08-09T20:47:50.645Z,60.19
2022-08-09T20:50:47.746Z,60.39
2022-08-09T20:53:02.903Z,60.79
2022-08-09T20:55:29.673Z,61.04
2022-08-09T20:58:20.298Z,61.62
2022-08-09T21:01:01.982Z,61.76
2022-08-09T21:03:28.648Z,61.55
2022-08-09T21:06:05.782Z,61.96
2022-08-09T21:08:36.379Z,61.90
2022-08-09T21:11:03.069Z,62.36
2022-08-09T21:13:45.755Z,62.60
2022-08-09T21:16:19.780Z,62.94
2022-08-09T21:20:04.317Z,62.92
2022-08-09T21:21:46.310Z,62.96
2022-08-09T21:24:19.262Z,63.22
2022-08-09T21:26:51.495Z,64.16
2022-08-09T21:29:22.792Z,63.89
2022-08-09T21:31:49.817Z,64.42
2022-08-09T21:34:28.680Z,64.25
2022-08-09T21:36:56.515Z,65.19
2022-08-09T21:39:27.894Z,65.53
2022-08-09T21:42:04.871Z,65.09
2022-08-09T21:44:35.316Z,65.50
2022-08-09T21:47:08.829Z,65.40
2022-08-09T21:49:40.100Z,65.85
2022-08-09T21:52:08.027Z,66.24
2022-08-09T21:54:42.396Z,66.34
2022-08-09T21:57:25.149Z,66.17
2022-08-09T21:59:58.329Z,67.09
2022-08-09T22:02:36.071Z,67.58
2022-08-09T22:05:16.711Z,67.08
2022-08-09T22:07:52.235Z,67.81
2022-08-09T22:10:22.133Z,67.70
2022-08-09T22:12:50.320Z,68.03
2022-08-09T22:15:16.980Z,68.26
2022-08-09T22:17:45.968Z,68.76
2022-08-09T22:20:21.533Z,68.78
2022-08-09T22:22:48.727Z,69.39
2022-08-09T22:26:05.422Z,69.21
2022-08-09T22:28:01.242Z,69.69
2022-08-09T22:30:33.669Z,69.51
2022-08-09T22:32:59.839Z,69.98
2022-08-09T22:36:02.591Z,70.41
2022-08-09T22:38:14.796Z,70.42
2022-08-09T22:40:49.104Z,69.96
2022-08-09T22:44:00.635Z,70.59
2022-08-09T22:48:16.315Z,70.74
2022-08-09T22:48:55.707Z,70.81
2022-08-09T22:51:28.085Z,71.66
2022-08-09T22:53:58.416Z,71.45
2022-08-09T22:56:33.387Z,71.95
2022-08-09T22:59:01.360Z,71.95
2022-08-09T23:01:33.133Z,72.57
2022-08-09T23:04:03.445Z,72.82
2022-08-09T23:06:52.242Z,72.87
2022-08-09T23:09:18.357Z,72.68
2022-08-09T23:11:44.475Z,73.30
2022-08-09T23:14:17.177Z,73.36
2022-08-09T23:16:43.821Z,73.29
2022-08-09T23:19:09.939Z,73.58
2022-08-09T23:21:36.760Z,73.76
2022-08-09T23:24:07.159Z,74.03
2022-08-09T23:26:38.169Z,73.82
2022-08-09T23:29:05.817Z,73.85
2022-08-09T23:31:32.518Z,74.49
2022-08-09T23:33:58.649Z,74.13
2022-08-09T23:36:24.775Z,74.57
2022-08-09T23:38:50.906Z,74.89
2022-08-09T23:41:28.786Z,75.24
2022-08-09T23:43:55.572Z,74.77
2022-08-09T23:46:22.277Z,75.55
2022-08-09T23:48:48.393Z,75.52
2022-08-09T23:51:14.525Z,75.39
2022-08-09T23:53:40.702Z,75.93
2022-08-09T23:56:06.904Z,75.87
2022-08-09T23:58:33.141Z,76.43
